Cabarete, Dominican Republic
Current Conditions -  °F | °C
As of 8:00 PM on Tuesday 21 Oct 2014 (Local Time) from MDCY Reporting Station
Few Clouds Few Clouds  
Wind Chill: 81°   Ceiling: Unl
Heat Index: 86°   Visibility: 6mi
Dew Point: 75°   Wind: 7mph
Humidity: 84%   Direction: 60°ENE
Pressure: 29.88"   Gusts: NA
Location:  19.57°N, 70.02°W
Report Text: MDCY 220000Z 06006KT 9999 FEW018 27/24 Q1012 NOSIG
Loading
Personal Weather Stations






























Interactive Weather Map New forecast layout! Learn more

10-Day Weather Forecast

Advertisements
Track Severe Weather on mobile